METAR AND TAF INFORMATION
METAR FOR PAOH
ADDS - METARS form results

(1958 UTC 18 January 2019)
Data provider http://aviationweather.gov/metar/data/
 
METAR text: PAOH 181956Z AUTO 10014G21KT 10SM SCT120 00/M09 A2966 RMK AO2 SLP044 T00001089 FZRANO
Conditions at: PAOH (HOONAH , AK, US) observed 1956 UTC 18 January 2019
Temperature: 0.0°C (32°F)
Dewpoint: -8.9°C (16°F) [RH = 51%]
Pressure (altimeter): 29.66 inches Hg (1004.5 mb)
[Sea-level pressure: 1004.4 mb]
Winds: from the E (100 degrees) at 16 MPH (14 knots; 7.2 m/s)
gusting to 24 MPH (21 knots; 10.8 m/s)
Visibility: 10 or more miles (16+ km)
Ceiling: at least 12,000 feet AGL
Clouds: scattered clouds at 12000 feet AGL
Weather: automated observation with no human augmentation;
there may or may not be significant weather present at this time

 AIRPORT MAP

 RUNWAY INFORMATION
Runway 06 Runway length 2997 ft Runway width 75 ft
Runway elevation 15 ft Runway displaced threshold 0 ft Runway heading 78
Runway 24 Runway length 2997 ft Runway width 75 ft
Runway elevation 19 ft Runway displaced threshold 0 ft Runway heading 258

 AIRPORT FREQUENCIES

 AIRPORT NEAR NAVIGATION AIDS
Type VORTAC Name Sisters Island Frequency 114000 KHZ



Powered by Virtual Airlines Manager [v2.6.2]